Etusivu
METAR-TAF:

METAR-TAF

Lentoasemat :

San Sebastiánin lentoasema

San Sebastián, Espanja

Leveyspiiri: 43-21N, Pituuspiiri: 001-48W, korkeus merenpinnasta: 5 m

Tämänhetkinen sää

Tämä raportti tehtiin 30 minuuttia sitten, kello 01.00 UTC
Tuuli 2 kn eri suunnista
Lämpötila 7°C
Kosteus 93%
Ilmanpaine 1021 hPa
Näkyvyys: 8000 m

METAR: LESO 200100Z AUTO VRB02KT 8000 NCD 07/06 Q1021

Aika: 02:30 (01:30 UTC)

Sääennuste

Tämä raportti tehtiin 2 tuntia ja 30 minuuttia sitten, kello 23.00 UTC
Ennuste voimassa 20. päivästä klo 00 UTC - 20. päivään klo 24 UTC
Tuuli 4 kn etelästä
Näkyvyys 10 km tai enemmän
ei pilviä alle 1500 m:ssä eikä cumulonimbus-pilviä
Ajoittain
20. päivästä klo 00 UTC - 20. päivään klo 07 UTC
Näkyvyys: 3000 m
utua

TAF: LESO 192300Z 2000/2024 17004KT CAVOK TX18/2015Z TN05/2004Z TEMPO 2000/2007 3000 BR

Säähavainnot ja -ennusteet yli 4000 lentoasemalta (METAR- ja TAF-raportit).

Käytössä olevat sääasemat on merkitty karttaan keltaisilla ja punaisilla pisteillä.

Aseta hiiri pisteen päälle nähdäksesi sääaseman nimen.

Klikkaa sitten nähdäksesi säähavainnot ja -ennusteet.

Kartan vaihtaminen: klikkaa mustalla rastilla varustettuja vihreitä pisteitä, niin voit zoomata sisään; viivalla varustettua vihreää pistettä, niin voit zoomata ulos tai vihreitä nuolia, niin pääset viereisille kartoille.


METAR-TAF: